< < Back
Terminal Aerodrome Forecast


Current Version              Previous Versions:   1  2  3  4  5  6  7  8  9  

Terminal Aerodrome Forecast

505
FTUS42 KFFC 271721
TAFFTY
TAF
KFTY 271721Z 2718/2818 24006KT P6SM SCT045
     FM272000 23007KT P6SM VCSH SCT050
      TEMPO 2721/2801 VRB15G35KT 3SM -TSRA BKN035CB
     FM280300 VRB03KT P6SM SCT070 BKN120
     FM281400 35005KT P6SM VCSH SCT035 BKN050 PROB30 2814/2818 5SM
      -TSRA BKN035CB=



Latest METAR

355
SAUS70 KWBC 280300 RRT
MTRFTY
METAR KFTY 280253Z 13004KT 10SM CLR 24/21 A3004 RMK AO2 LTG DSNT E
SLP164 60034 T02390211 51020


USA.gov is the U.S. government's official web portal to all federal, state and local government web resources and services.